createdAt,value
2022-11-10T00:02:29.942Z,1.65
2022-11-10T00:07:50.196Z,1.70
2022-11-10T00:13:10.153Z,1.20
2022-11-10T00:18:30.123Z,1.38
2022-11-10T00:23:50.061Z,1.40
2022-11-10T00:29:10.260Z,2.08
2022-11-10T00:34:30.238Z,1.45
2022-11-10T00:39:50.205Z,1.30
2022-11-10T00:45:10.496Z,1.77
2022-11-10T00:50:30.300Z,1.70
2022-11-10T00:55:50.635Z,1.95
2022-11-10T01:01:11.621Z,1.33
2022-11-10T01:06:31.654Z,1.45
2022-11-10T01:11:51.843Z,1.38
2022-11-10T01:17:11.999Z,2.33
2022-11-10T01:22:31.809Z,1.33
2022-11-10T01:27:52.256Z,1.85
2022-11-10T01:33:12.448Z,2.08
2022-11-10T01:38:34.846Z,1.33
2022-11-10T01:44:12.453Z,1.90
2022-11-10T01:49:32.561Z,1.60
2022-11-10T01:54:52.805Z,1.60
2022-11-10T02:00:13.390Z,1.35
2022-11-10T02:05:33.466Z,1.30
2022-11-10T02:10:53.862Z,1.85
2022-11-10T02:16:13.965Z,2.10
2022-11-10T02:21:34.240Z,1.75
2022-11-10T02:26:55.777Z,2.40
2022-11-10T02:32:16.149Z,1.95
2022-11-10T02:37:36.395Z,2.80
2022-11-10T02:42:56.702Z,2.70
2022-11-10T02:48:16.946Z,2.65
2022-11-10T02:53:37.147Z,2.53
2022-11-10T02:58:57.361Z,2.20
2022-11-10T03:04:17.645Z,2.65
2022-11-10T03:09:37.457Z,2.85
2022-11-10T03:14:57.577Z,2.42
2022-11-10T03:20:18.026Z,3.70
2022-11-10T03:25:38.210Z,2.72
2022-11-10T03:30:58.067Z,2.38
2022-11-10T03:36:18.090Z,2.97
2022-11-10T03:41:38.408Z,2.55
2022-11-10T03:46:58.808Z,3.45
2022-11-10T03:52:18.752Z,2.50
2022-11-10T03:57:39.318Z,2.80
2022-11-10T04:02:59.226Z,3.17
2022-11-10T04:08:19.194Z,3.55
2022-11-10T04:13:39.321Z,3.05
2022-11-10T04:18:59.557Z,3.17
2022-11-10T04:24:20.488Z,2.83
2022-11-10T04:29:40.654Z,2.67
2022-11-10T04:35:00.899Z,3.00
2022-11-10T04:40:20.995Z,3.63
2022-11-10T04:45:41.148Z,3.95
2022-11-10T04:51:05.943Z,3.00
2022-11-10T04:56:26.801Z,3.38
2022-11-10T05:01:46.798Z,3.38
2022-11-10T05:07:06.858Z,3.30
2022-11-10T05:12:27.249Z,3.30
2022-11-10T05:17:51.966Z,4.05
2022-11-10T05:23:12.298Z,3.33
2022-11-10T05:28:32.515Z,4.45
2022-11-10T05:33:52.383Z,3.40
2022-11-10T05:39:12.380Z,5.40
2022-11-10T05:44:32.411Z,3.45
2022-11-10T05:49:52.641Z,3.45
2022-11-10T05:55:13.675Z,3.30
2022-11-10T06:00:34.399Z,3.78
2022-11-10T06:05:54.348Z,3.80
2022-11-10T06:11:14.347Z,3.78
2022-11-10T06:16:34.268Z,3.67
2022-11-10T06:22:01.299Z,4.30
2022-11-10T06:27:23.891Z,4.18
2022-11-10T06:32:44.138Z,5.25
2022-11-10T06:38:10.882Z,3.88
2022-11-10T06:43:30.896Z,4.57
2022-11-10T06:48:50.764Z,4.65
2022-11-10T06:54:10.673Z,5.22
2022-11-10T06:59:30.866Z,5.00
2022-11-10T07:04:50.729Z,4.88
2022-11-10T07:10:10.832Z,4.90
2022-11-10T07:15:31.520Z,5.00
2022-11-10T07:20:51.983Z,5.45
2022-11-10T07:26:12.647Z,4.65
2022-11-10T07:31:32.754Z,4.80
2022-11-10T07:36:52.837Z,6.97
2022-11-10T07:42:12.929Z,5.18
2022-11-10T07:47:33.297Z,4.97
2022-11-10T07:52:53.360Z,3.95
2022-11-10T07:58:16.369Z,4.40
2022-11-10T08:03:36.508Z,3.95
2022-11-10T08:08:56.582Z,4.50
2022-11-10T08:14:16.888Z,3.15
2022-11-10T08:19:36.926Z,2.83
2022-11-10T08:24:57.190Z,2.85
2022-11-10T08:30:17.098Z,2.38
2022-11-10T08:35:41.214Z,3.47
2022-11-10T08:41:01.058Z,1.88
2022-11-10T08:46:21.335Z,2.38
2022-11-10T08:51:41.490Z,2.13
2022-11-10T08:57:01.224Z,1.77
2022-11-10T09:02:21.592Z,2.35
2022-11-10T09:07:46.792Z,2.03
2022-11-10T09:13:07.320Z,1.58
2022-11-10T09:18:27.419Z,2.00
2022-11-10T09:23:48.457Z,1.88
2022-11-10T09:29:10.069Z,3.65
2022-11-10T09:34:30.130Z,1.98
2022-11-10T09:39:50.221Z,2.25
2022-11-10T09:45:20.121Z,2.47
2022-11-10T09:50:44.973Z,2.13
2022-11-10T09:56:06.992Z,2.15
2022-11-10T10:01:51.349Z,1.70
2022-11-10T10:07:28.890Z,1.67
2022-11-10T10:13:17.271Z,2.55
2022-11-10T10:18:56.019Z,1.52
2022-11-10T10:24:22.282Z,2.05
2022-11-10T10:35:09.339Z,2.35
2022-11-10T10:40:29.580Z,1.60
2022-11-10T10:46:23.089Z,1.70
2022-11-10T10:51:43.218Z,1.67
2022-11-10T10:57:23.736Z,1.92
2022-11-10T11:02:43.740Z,1.67
2022-11-10T11:08:04.246Z,1.67
2022-11-10T11:13:26.798Z,1.60
2022-11-10T11:18:47.372Z,1.85
2022-11-10T11:24:27.820Z,1.20
2022-11-10T11:29:54.063Z,1.33
2022-11-10T11:35:19.639Z,1.20
2022-11-10T11:41:01.712Z,1.77
2022-11-10T11:46:48.010Z,1.38
2022-11-10T11:52:30.523Z,1.10
2022-11-10T11:58:12.334Z,1.55
2022-11-10T12:03:45.704Z,1.52
2022-11-10T12:09:28.470Z,1.27
2022-11-10T12:15:11.900Z,1.30
2022-11-10T12:20:58.675Z,1.00
2022-11-10T12:31:52.085Z,1.30
2022-11-10T12:37:43.749Z,1.90
2022-11-10T12:43:07.533Z,1.20
2022-11-10T12:48:38.869Z,1.02
2022-11-10T12:53:58.810Z,1.25
2022-11-10T12:59:22.029Z,1.20
2022-11-10T13:04:42.096Z,1.20
2022-11-10T13:10:22.445Z,1.30
2022-11-10T13:15:42.590Z,1.98
2022-11-10T13:21:02.628Z,1.60
2022-11-10T13:26:44.802Z,1.30
2022-11-10T13:32:07.645Z,1.90
2022-11-10T13:37:33.911Z,1.17
2022-11-10T13:43:14.153Z,1.25
2022-11-10T13:48:48.890Z,1.55
2022-11-10T13:54:57.079Z,0.80
2022-11-10T14:00:17.040Z,1.40
2022-11-10T14:05:37.003Z,1.10
2022-11-10T14:11:03.462Z,1.35
2022-11-10T14:16:26.198Z,0.90
2022-11-10T14:21:58.012Z,1.15
2022-11-10T14:27:28.514Z,1.30
2022-11-10T14:33:13.647Z,1.25
2022-11-10T14:38:33.939Z,0.95
2022-11-10T14:44:07.677Z,1.08
2022-11-10T14:49:27.993Z,1.20
2022-11-10T14:54:48.230Z,1.83
2022-11-10T15:00:14.883Z,1.20
2022-11-10T15:05:35.697Z,2.25
2022-11-10T15:10:55.863Z,1.77
2022-11-10T15:16:22.342Z,2.10
2022-11-10T15:21:42.374Z,2.00
2022-11-10T15:27:02.744Z,2.42
2022-11-10T15:32:27.240Z,2.17
2022-11-10T15:38:05.545Z,2.58
2022-11-10T15:43:27.413Z,1.60
2022-11-10T15:48:50.395Z,2.00
2022-11-10T15:54:11.623Z,2.30
2022-11-10T15:59:31.982Z,2.35
2022-11-10T16:04:58.607Z,2.40
2022-11-10T16:10:20.736Z,2.50
2022-11-10T16:15:42.028Z,1.95
2022-11-10T16:21:02.042Z,2.38
2022-11-10T16:26:25.439Z,2.25
2022-11-10T16:31:45.507Z,2.17
2022-11-10T16:37:05.575Z,1.92
2022-11-10T16:42:25.866Z,2.25
2022-11-10T16:47:48.219Z,1.80
2022-11-10T16:53:14.338Z,3.22
2022-11-10T16:58:34.309Z,2.05
2022-11-10T17:03:57.462Z,1.88
2022-11-10T17:09:20.522Z,1.85
2022-11-10T17:14:40.349Z,2.00
2022-11-10T17:20:00.299Z,2.22
2022-11-10T17:25:33.516Z,1.90
2022-11-10T17:30:53.621Z,1.70
2022-11-10T17:36:18.383Z,2.30
2022-11-10T17:41:38.305Z,2.20
2022-11-10T17:46:58.669Z,2.28
2022-11-10T17:52:18.680Z,2.30
2022-11-10T17:57:39.831Z,2.65
2022-11-10T18:02:59.740Z,2.75
2022-11-10T18:08:20.279Z,2.15
2022-11-10T18:13:41.588Z,3.08
2022-11-10T18:19:01.662Z,3.15
2022-11-10T18:24:21.859Z,3.10
2022-11-10T18:29:42.157Z,3.03
2022-11-10T18:35:02.363Z,3.70
2022-11-10T18:40:22.419Z,3.67
2022-11-10T18:45:42.497Z,6.07
2022-11-10T18:51:05.539Z,4.45
2022-11-10T18:56:26.308Z,3.55
2022-11-10T19:01:46.570Z,3.33
2022-11-10T19:07:07.036Z,4.90
2022-11-10T19:12:27.191Z,5.55
2022-11-10T19:17:47.388Z,4.82
2022-11-10T19:23:08.038Z,5.05
2022-11-10T19:28:29.014Z,4.75
2022-11-10T19:33:50.970Z,5.35
2022-11-10T19:39:13.318Z,4.53
2022-11-10T19:44:33.430Z,5.97
2022-11-10T19:49:54.801Z,6.05
2022-11-10T19:55:14.920Z,5.05
2022-11-10T20:00:35.431Z,4.32
2022-11-10T20:06:07.540Z,5.13
2022-11-10T20:11:27.573Z,5.50
2022-11-10T20:16:47.601Z,5.65
2022-11-10T20:22:07.514Z,5.50
2022-11-10T20:27:27.551Z,5.47
2022-11-10T20:32:47.616Z,5.35
2022-11-10T20:38:07.898Z,6.50
2022-11-10T20:43:33.312Z,7.18
2022-11-10T20:48:53.130Z,6.50
2022-11-10T20:54:13.136Z,6.38
2022-11-10T20:59:33.080Z,9.10
2022-11-10T21:04:53.090Z,8.38
2022-11-10T21:10:13.065Z,7.60
2022-11-10T21:15:36.512Z,8.95
2022-11-10T21:20:57.315Z,7.60
2022-11-10T21:26:17.435Z,9.02
2022-11-10T21:31:37.726Z,8.40
2022-11-10T21:36:57.905Z,8.80
2022-11-10T21:42:17.754Z,9.55
2022-11-10T21:47:37.715Z,9.40
2022-11-10T21:52:57.884Z,9.80
2022-11-10T21:58:18.125Z,8.55
2022-11-10T22:03:38.644Z,9.45
2022-11-10T22:08:58.555Z,10.55
2022-11-10T22:14:18.729Z,10.93
2022-11-10T22:19:38.649Z,10.32
2022-11-10T22:24:58.486Z,12.48
2022-11-10T22:30:18.639Z,10.75
2022-11-10T22:35:38.677Z,10.75
2022-11-10T22:40:58.880Z,11.60
2022-11-10T22:46:18.889Z,11.63
2022-11-10T22:51:38.768Z,11.57
2022-11-10T22:56:58.685Z,11.40
2022-11-10T23:02:18.754Z,11.00
2022-11-10T23:07:38.639Z,10.00
2022-11-10T23:12:58.698Z,10.63
2022-11-10T23:18:18.975Z,10.35
2022-11-10T23:23:40.545Z,10.25
2022-11-10T23:29:00.678Z,10.23
2022-11-10T23:34:20.834Z,10.77
2022-11-10T23:39:40.730Z,10.40
2022-11-10T23:45:00.879Z,11.00
2022-11-10T23:50:20.998Z,11.00
2022-11-10T23:55:41.269Z,10.10
